createdAt,value
2023-03-25T00:02:52.713Z,7.83
2023-03-25T00:07:54.378Z,7.79
2023-03-25T00:12:55.933Z,7.66
2023-03-25T00:17:57.536Z,7.57
2023-03-25T00:22:59.162Z,7.57
2023-03-25T00:28:00.730Z,7.51
2023-03-25T00:33:02.974Z,7.52
2023-03-25T00:38:04.538Z,7.65
2023-03-25T00:43:06.999Z,7.85
2023-03-25T00:48:08.579Z,8.02
2023-03-25T00:53:10.289Z,7.98
2023-03-25T00:58:11.769Z,7.88
2023-03-25T01:03:13.633Z,7.90
2023-03-25T01:08:17.591Z,8.11
2023-03-25T01:13:19.328Z,8.13
2023-03-25T01:18:21.010Z,8.11
2023-03-25T01:23:22.546Z,8.18
2023-03-25T01:28:24.223Z,8.25
2023-03-25T01:33:26.000Z,7.88
2023-03-25T01:38:29.360Z,7.43
2023-03-25T01:43:32.018Z,7.07
2023-03-25T01:48:43.896Z,6.61
2023-03-25T01:53:46.377Z,6.44
2023-03-25T01:58:51.431Z,6.35
2023-03-25T02:04:02.886Z,6.20
2023-03-25T02:09:06.671Z,6.03
2023-03-25T02:14:12.838Z,5.93
2023-03-25T02:19:48.394Z,5.81
2023-03-25T02:25:19.337Z,5.69
2023-03-25T02:30:36.469Z,5.55
2023-03-25T02:35:56.669Z,5.47
2023-03-25T02:41:06.842Z,5.36
2023-03-25T02:46:15.616Z,5.36
2023-03-25T02:51:24.381Z,5.46
2023-03-25T02:56:29.558Z,5.52
2023-03-25T03:01:34.785Z,5.56
2023-03-25T03:06:42.272Z,5.56
2023-03-25T03:12:14.063Z,5.53
2023-03-25T03:17:27.406Z,5.54
2023-03-25T03:22:35.055Z,5.54
2023-03-25T03:27:54.011Z,5.70
2023-03-25T03:32:55.552Z,5.86
2023-03-25T03:38:04.765Z,6.05
2023-03-25T03:43:10.964Z,6.20
2023-03-25T03:48:47.939Z,6.31
2023-03-25T03:53:49.395Z,6.41
2023-03-25T03:58:54.476Z,6.50
2023-03-25T04:04:07.691Z,6.62
2023-03-25T04:09:40.809Z,6.69
2023-03-25T04:14:42.669Z,6.71
2023-03-25T04:19:49.142Z,6.93
2023-03-25T04:24:51.773Z,7.09
2023-03-25T04:29:53.441Z,7.18
2023-03-25T04:34:57.824Z,7.22
2023-03-25T04:40:01.360Z,7.24
2023-03-25T04:45:07.601Z,7.28
2023-03-25T04:50:20.950Z,7.24
2023-03-25T04:55:22.456Z,7.22
2023-03-25T05:00:25.350Z,7.32
2023-03-25T05:05:26.905Z,7.41
2023-03-25T05:10:29.690Z,7.47
2023-03-25T05:15:35.248Z,7.51
2023-03-25T05:20:39.889Z,7.54
2023-03-25T05:25:51.739Z,7.55
2023-03-25T05:30:53.741Z,7.58
2023-03-25T05:35:55.257Z,7.61
2023-03-25T05:40:56.819Z,7.65
2023-03-25T05:45:58.388Z,7.71
2023-03-25T05:51:06.230Z,7.73
2023-03-25T05:56:08.191Z,7.70
2023-03-25T06:01:25.476Z,7.71
2023-03-25T06:06:35.954Z,7.68
2023-03-25T06:11:40.438Z,7.83
2023-03-25T06:16:43.803Z,8.08
2023-03-25T06:21:49.457Z,8.28
2023-03-25T06:26:51.746Z,8.53
2023-03-25T06:31:53.260Z,8.86
2023-03-25T06:36:54.961Z,9.01
2023-03-25T06:41:57.565Z,9.09
2023-03-25T06:47:06.773Z,8.80
2023-03-25T06:52:18.885Z,8.87
2023-03-25T06:57:20.718Z,9.32
2023-03-25T07:02:22.263Z,9.90
2023-03-25T07:07:23.858Z,10.00
2023-03-25T07:12:25.399Z,9.89
2023-03-25T07:17:26.997Z,9.99
2023-03-25T07:22:28.709Z,10.39
2023-03-25T07:27:30.470Z,10.67
2023-03-25T07:32:38.745Z,10.55
2023-03-25T07:37:40.310Z,10.62
2023-03-25T07:42:41.863Z,10.76
2023-03-25T07:48:02.317Z,10.87
2023-03-25T07:53:03.905Z,11.04
2023-03-25T07:58:05.583Z,11.31
2023-03-25T08:03:12.305Z,11.44
2023-03-25T08:08:14.410Z,11.47
2023-03-25T08:13:16.218Z,11.35
2023-03-25T08:18:18.164Z,10.09
2023-03-25T08:23:20.629Z,8.77
2023-03-25T08:28:23.407Z,8.26
2023-03-25T08:33:27.749Z,8.22
2023-03-25T08:38:34.630Z,8.53
2023-03-25T08:43:36.686Z,8.69
2023-03-25T08:48:38.346Z,9.16
2023-03-25T08:53:40.092Z,9.45
2023-03-25T08:58:41.631Z,9.54
2023-03-25T09:03:43.137Z,9.81
2023-03-25T09:08:44.672Z,10.34
2023-03-25T09:13:52.113Z,10.35
2023-03-25T09:18:53.646Z,9.60
2023-03-25T09:23:55.765Z,9.30
2023-03-25T09:28:58.019Z,9.51
2023-03-25T09:33:59.641Z,9.42
2023-03-25T09:39:01.322Z,9.16
2023-03-25T09:44:35.817Z,8.81
2023-03-25T09:49:44.087Z,8.52
2023-03-25T09:54:59.800Z,8.28
2023-03-25T10:00:04.165Z,8.18
2023-03-25T10:05:15.665Z,8.61
2023-03-25T10:10:29.011Z,8.88
2023-03-25T10:15:54.535Z,9.41
2023-03-25T10:21:09.735Z,10.11
2023-03-25T10:26:33.473Z,10.45
2023-03-25T10:31:39.446Z,10.05
2023-03-25T10:36:49.209Z,10.05
2023-03-25T10:41:59.835Z,10.31
2023-03-25T10:47:08.982Z,10.95
2023-03-25T10:52:10.588Z,11.94
2023-03-25T10:57:20.365Z,12.58
2023-03-25T11:02:25.859Z,12.84
2023-03-25T11:07:33.271Z,13.14
2023-03-25T11:12:42.904Z,12.91
2023-03-25T11:17:47.328Z,12.83
2023-03-25T11:22:53.276Z,13.06
2023-03-25T11:28:11.404Z,13.37
2023-03-25T11:33:17.309Z,13.78
2023-03-25T11:38:22.078Z,13.81
2023-03-25T11:43:33.132Z,13.40
2023-03-25T11:48:40.035Z,12.64
2023-03-25T11:53:48.377Z,12.27
2023-03-25T11:58:51.855Z,12.15
2023-03-25T12:04:07.894Z,11.65
2023-03-25T12:09:11.802Z,11.76
2023-03-25T12:15:02.543Z,12.32
2023-03-25T12:20:30.085Z,12.71
2023-03-25T12:25:54.545Z,12.85
2023-03-25T12:30:56.077Z,12.54
2023-03-25T12:36:06.766Z,12.54
2023-03-25T12:41:20.141Z,13.09
2023-03-25T12:46:40.394Z,13.20
2023-03-25T12:51:42.115Z,13.41
2023-03-25T12:57:15.981Z,13.69
2023-03-25T13:02:23.412Z,13.73
2023-03-25T13:07:46.681Z,13.33
2023-03-25T13:12:51.008Z,13.17
2023-03-25T13:18:27.662Z,13.10
2023-03-25T13:23:30.844Z,12.86
2023-03-25T13:28:48.271Z,11.92
2023-03-25T13:34:08.577Z,11.50
2023-03-25T13:39:14.048Z,11.99
2023-03-25T13:44:26.418Z,12.04
2023-03-25T13:49:35.044Z,12.00
2023-03-25T13:54:49.219Z,12.22
2023-03-25T14:00:12.227Z,12.52
2023-03-25T14:05:34.118Z,13.02
2023-03-25T14:10:58.356Z,13.32
2023-03-25T14:16:08.735Z,13.62
2023-03-25T14:21:29.160Z,13.49
2023-03-25T14:26:33.665Z,13.67
2023-03-25T14:31:35.857Z,13.85
2023-03-25T14:36:40.685Z,14.00
2023-03-25T14:42:01.755Z,14.17
2023-03-25T14:47:13.026Z,14.16
2023-03-25T14:52:16.178Z,13.94
2023-03-25T14:57:26.108Z,13.93
2023-03-25T15:02:33.318Z,13.99
2023-03-25T15:08:05.030Z,14.23
2023-03-25T15:13:29.086Z,14.29
2023-03-25T15:18:37.134Z,14.20
2023-03-25T15:23:49.719Z,14.27
2023-03-25T15:29:08.865Z,13.99
2023-03-25T15:34:25.681Z,13.61
2023-03-25T15:39:52.139Z,13.59
2023-03-25T15:45:05.687Z,13.52
2023-03-25T15:50:12.795Z,13.64
2023-03-25T15:55:53.551Z,13.59
2023-03-25T16:01:03.143Z,13.47
2023-03-25T16:06:07.578Z,13.61
2023-03-25T16:11:15.754Z,13.60
2023-03-25T16:16:17.693Z,13.40
2023-03-25T16:21:19.810Z,13.31
2023-03-25T16:26:41.512Z,13.27
2023-03-25T16:31:55.188Z,13.29
2023-03-25T16:36:57.046Z,13.14
2023-03-25T16:42:26.144Z,12.98
2023-03-25T16:47:31.210Z,12.76
2023-03-25T16:52:34.249Z,12.73
2023-03-25T16:57:39.267Z,12.79
2023-03-25T17:02:41.865Z,12.85
2023-03-25T17:07:43.614Z,12.84
2023-03-25T17:12:50.381Z,12.79
2023-03-25T17:18:00.190Z,12.85
2023-03-25T17:23:10.756Z,12.75
2023-03-25T17:28:31.069Z,12.35
2023-03-25T17:33:34.394Z,12.11
2023-03-25T17:38:41.322Z,11.84
2023-03-25T17:43:53.319Z,11.56
2023-03-25T17:48:57.717Z,11.26
2023-03-25T17:53:59.289Z,11.02
2023-03-25T17:59:03.780Z,10.94
2023-03-25T18:04:05.549Z,10.90
2023-03-25T18:09:14.620Z,10.94
2023-03-25T18:14:16.385Z,10.90
2023-03-25T18:19:21.244Z,10.83
2023-03-25T18:24:22.893Z,10.75
2023-03-25T18:29:28.262Z,10.68
2023-03-25T18:34:29.963Z,10.63
2023-03-25T18:39:32.247Z,10.57
2023-03-25T18:44:33.948Z,10.46
2023-03-25T18:49:35.801Z,10.41
2023-03-25T18:54:37.374Z,10.37
2023-03-25T18:59:39.027Z,10.23
2023-03-25T19:04:50.631Z,10.19
2023-03-25T19:10:01.592Z,10.09
2023-03-25T19:15:03.195Z,9.96
2023-03-25T19:20:07.676Z,9.83
2023-03-25T19:25:10.746Z,9.69
2023-03-25T19:30:17.602Z,9.58
2023-03-25T19:35:20.758Z,9.49
2023-03-25T19:40:24.775Z,9.40
2023-03-25T19:45:27.188Z,9.35
2023-03-25T19:50:32.068Z,9.27
2023-03-25T19:55:33.628Z,9.23
2023-03-25T20:00:35.460Z,9.21
2023-03-25T20:05:37.015Z,9.19
2023-03-25T20:10:41.006Z,9.12
2023-03-25T20:15:42.586Z,9.10
2023-03-25T20:20:44.242Z,9.09
2023-03-25T20:25:47.363Z,9.09
2023-03-25T20:30:48.917Z,9.12
2023-03-25T20:35:51.068Z,9.15
2023-03-25T20:40:54.339Z,9.17
2023-03-25T20:45:56.462Z,9.18
2023-03-25T20:51:04.688Z,9.21
2023-03-25T20:56:06.538Z,9.19
2023-03-25T21:01:08.146Z,9.15
2023-03-25T21:06:23.064Z,9.09
2023-03-25T21:11:26.517Z,9.09
2023-03-25T21:16:28.176Z,8.28
2023-03-25T21:21:30.783Z,7.66
2023-03-25T21:26:32.733Z,7.45
2023-03-25T21:31:34.318Z,7.21
2023-03-25T21:36:36.060Z,7.11
2023-03-25T21:41:37.970Z,7.13
2023-03-25T21:46:40.840Z,7.12
2023-03-25T21:51:44.229Z,6.99
2023-03-25T21:56:46.981Z,6.97
2023-03-25T22:01:48.773Z,6.91
2023-03-25T22:06:50.462Z,6.72
2023-03-25T22:11:52.237Z,6.54
2023-03-25T22:16:53.986Z,6.47
2023-03-25T22:21:55.589Z,6.44
2023-03-25T22:26:57.125Z,6.44
2023-03-25T22:32:06.693Z,6.43
2023-03-25T22:37:08.311Z,6.33
2023-03-25T22:42:10.093Z,6.20
2023-03-25T22:47:11.954Z,6.06
2023-03-25T22:52:13.548Z,5.95
2023-03-25T22:57:15.506Z,5.86
2023-03-25T23:02:17.395Z,5.77
2023-03-25T23:07:19.081Z,5.70
2023-03-25T23:12:23.042Z,5.68
2023-03-25T23:17:26.029Z,5.65
2023-03-25T23:22:27.976Z,5.66
2023-03-25T23:27:30.761Z,5.70
2023-03-25T23:32:35.479Z,5.72
2023-03-25T23:37:37.065Z,5.71
2023-03-25T23:42:39.185Z,5.75
2023-03-25T23:47:40.732Z,5.83
2023-03-25T23:52:42.445Z,5.93
2023-03-25T23:57:43.955Z,5.97
